sensor_id;sensor_type;location;lat;lon;timestamp;P1;durP1;ratioP1;P2;durP2;ratioP2
9854;SDS011;4966;48.112;9.282;2023-02-18T00:01:09;5.22;;;1.95;;
9854;SDS011;4966;48.112;9.282;2023-02-18T00:03:36;4.55;;;2.00;;
9854;SDS011;4966;48.112;9.282;2023-02-18T00:06:09;5.97;;;2.28;;
9854;SDS011;4966;48.112;9.282;2023-02-18T00:08:36;4.40;;;2.25;;
9854;SDS011;4966;48.112;9.282;2023-02-18T00:11:03;3.80;;;1.98;;
9854;SDS011;4966;48.112;9.282;2023-02-18T00:13:30;4.00;;;2.28;;
9854;SDS011;4966;48.112;9.282;2023-02-18T00:15:59;3.80;;;1.88;;
9854;SDS011;4966;48.112;9.282;2023-02-18T00:18:25;5.30;;;1.92;;
9854;SDS011;4966;48.112;9.282;2023-02-18T00:20:50;3.10;;;1.63;;
9854;SDS011;4966;48.112;9.282;2023-02-18T00:23:16;3.00;;;1.70;;
9854;SDS011;4966;48.112;9.282;2023-02-18T00:25:41;4.28;;;1.70;;
9854;SDS011;4966;48.112;9.282;2023-02-18T00:28:07;4.28;;;1.50;;
9854;SDS011;4966;48.112;9.282;2023-02-18T00:30:32;3.03;;;1.58;;
9854;SDS011;4966;48.112;9.282;2023-02-18T00:32:57;3.72;;;1.67;;
9854;SDS011;4966;48.112;9.282;2023-02-18T00:35:23;4.63;;;1.77;;
9854;SDS011;4966;48.112;9.282;2023-02-18T00:37:50;3.95;;;1.90;;
9854;SDS011;4966;48.112;9.282;2023-02-18T00:40:16;3.83;;;1.63;;
9854;SDS011;4966;48.112;9.282;2023-02-18T00:42:42;2.92;;;1.45;;
9854;SDS011;4966;48.112;9.282;2023-02-18T00:45:07;3.08;;;1.40;;
9854;SDS011;4966;48.112;9.282;2023-02-18T00:47:33;4.20;;;1.67;;
9854;SDS011;4966;48.112;9.282;2023-02-18T00:49:58;3.60;;;1.52;;
9854;SDS011;4966;48.112;9.282;2023-02-18T00:52:24;3.85;;;1.70;;
9854;SDS011;4966;48.112;9.282;2023-02-18T00:54:49;3.95;;;1.58;;
9854;SDS011;4966;48.112;9.282;2023-02-18T00:57:14;3.75;;;1.40;;
9854;SDS011;4966;48.112;9.282;2023-02-18T00:59:40;2.70;;;1.38;;
9854;SDS011;4966;48.112;9.282;2023-02-18T01:02:05;5.53;;;2.00;;
9854;SDS011;4966;48.112;9.282;2023-02-18T01:04:31;5.03;;;1.42;;
9854;SDS011;4966;48.112;9.282;2023-02-18T01:06:57;4.30;;;1.50;;
9854;SDS011;4966;48.112;9.282;2023-02-18T01:09:22;3.30;;;1.50;;
9854;SDS011;4966;48.112;9.282;2023-02-18T01:11:49;4.00;;;1.77;;
9854;SDS011;4966;48.112;9.282;2023-02-18T01:14:15;3.38;;;1.50;;
9854;SDS011;4966;48.112;9.282;2023-02-18T01:16:40;2.72;;;1.42;;
9854;SDS011;4966;48.112;9.282;2023-02-18T01:19:05;2.80;;;1.20;;
9854;SDS011;4966;48.112;9.282;2023-02-18T01:21:31;4.20;;;1.60;;
9854;SDS011;4966;48.112;9.282;2023-02-18T01:23:56;5.30;;;1.80;;
9854;SDS011;4966;48.112;9.282;2023-02-18T01:26:23;5.10;;;1.77;;
9854;SDS011;4966;48.112;9.282;2023-02-18T01:28:49;2.10;;;1.33;;
9854;SDS011;4966;48.112;9.282;2023-02-18T01:31:14;2.85;;;1.40;;
9854;SDS011;4966;48.112;9.282;2023-02-18T01:33:40;3.30;;;1.45;;
9854;SDS011;4966;48.112;9.282;2023-02-18T01:36:06;2.88;;;1.73;;
9854;SDS011;4966;48.112;9.282;2023-02-18T01:38:33;4.15;;;1.73;;
9854;SDS011;4966;48.112;9.282;2023-02-18T01:40:58;4.28;;;2.00;;
9854;SDS011;4966;48.112;9.282;2023-02-18T01:43:24;3.45;;;1.88;;
9854;SDS011;4966;48.112;9.282;2023-02-18T01:45:51;2.97;;;1.77;;
9854;SDS011;4966;48.112;9.282;2023-02-18T01:56:40;3.40;;;1.60;;
9854;SDS011;4966;48.112;9.282;2023-02-18T01:59:12;2.75;;;1.50;;
9854;SDS011;4966;48.112;9.282;2023-02-18T02:01:41;3.08;;;1.52;;
9854;SDS011;4966;48.112;9.282;2023-02-18T02:04:08;3.83;;;1.52;;
9854;SDS011;4966;48.112;9.282;2023-02-18T02:06:34;2.10;;;1.20;;
9854;SDS011;4966;48.112;9.282;2023-02-18T02:09:00;2.95;;;1.27;;
9854;SDS011;4966;48.112;9.282;2023-02-18T02:11:31;2.83;;;1.42;;
9854;SDS011;4966;48.112;9.282;2023-02-18T02:30:24;1.60;;;0.88;;
9854;SDS011;4966;48.112;9.282;2023-02-18T02:38:27;3.47;;;0.90;;
9854;SDS011;4966;48.112;9.282;2023-02-18T02:44:02;1.77;;;0.85;;
9854;SDS011;4966;48.112;9.282;2023-02-18T02:49:14;1.60;;;0.90;;
9854;SDS011;4966;48.112;9.282;2023-02-18T02:52:25;1.80;;;0.70;;
9854;SDS011;4966;48.112;9.282;2023-02-18T02:54:47;1.83;;;0.88;;
9854;SDS011;4966;48.112;9.282;2023-02-18T02:59:42;1.70;;;0.77;;
9854;SDS011;4966;48.112;9.282;2023-02-18T03:02:15;2.83;;;0.90;;
9854;SDS011;4966;48.112;9.282;2023-02-18T03:04:58;1.13;;;0.57;;
9854;SDS011;4966;48.112;9.282;2023-02-18T03:18:55;1.98;;;0.80;;
9854;SDS011;4966;48.112;9.282;2023-02-18T03:24:25;1.42;;;0.80;;
9854;SDS011;4966;48.112;9.282;2023-02-18T03:26:58;1.70;;;0.90;;
9854;SDS011;4966;48.112;9.282;2023-02-18T03:29:29;2.03;;;0.90;;
9854;SDS011;4966;48.112;9.282;2023-02-18T03:31:56;2.15;;;0.93;;
9854;SDS011;4966;48.112;9.282;2023-02-18T03:34:30;1.90;;;0.93;;
9854;SDS011;4966;48.112;9.282;2023-02-18T03:36:59;2.33;;;1.00;;
9854;SDS011;4966;48.112;9.282;2023-02-18T03:39:26;3.60;;;1.75;;
9854;SDS011;4966;48.112;9.282;2023-02-18T03:41:54;2.40;;;1.55;;
9854;SDS011;4966;48.112;9.282;2023-02-18T03:44:19;2.58;;;1.08;;
9854;SDS011;4966;48.112;9.282;2023-02-18T03:46:45;3.60;;;1.20;;
9854;SDS011;4966;48.112;9.282;2023-02-18T03:49:11;3.13;;;1.45;;
9854;SDS011;4966;48.112;9.282;2023-02-18T03:51:38;2.83;;;1.40;;
9854;SDS011;4966;48.112;9.282;2023-02-18T03:54:03;2.15;;;1.40;;
9854;SDS011;4966;48.112;9.282;2023-02-18T03:56:29;3.78;;;1.75;;
9854;SDS011;4966;48.112;9.282;2023-02-18T03:58:54;2.13;;;1.10;;
9854;SDS011;4966;48.112;9.282;2023-02-18T04:01:20;2.03;;;1.10;;
9854;SDS011;4966;48.112;9.282;2023-02-18T04:03:45;2.40;;;1.40;;
9854;SDS011;4966;48.112;9.282;2023-02-18T04:06:10;2.08;;;1.20;;
9854;SDS011;4966;48.112;9.282;2023-02-18T04:08:36;3.35;;;1.50;;
9854;SDS011;4966;48.112;9.282;2023-02-18T04:11:01;2.42;;;1.38;;
9854;SDS011;4966;48.112;9.282;2023-02-18T04:13:27;3.25;;;1.48;;
9854;SDS011;4966;48.112;9.282;2023-02-18T04:15:53;2.42;;;1.33;;
9854;SDS011;4966;48.112;9.282;2023-02-18T04:18:18;4.22;;;1.30;;
9854;SDS011;4966;48.112;9.282;2023-02-18T04:20:44;4.45;;;1.40;;
9854;SDS011;4966;48.112;9.282;2023-02-18T04:23:12;2.65;;;1.50;;
9854;SDS011;4966;48.112;9.282;2023-02-18T04:25:38;2.15;;;1.10;;
9854;SDS011;4966;48.112;9.282;2023-02-18T04:28:04;2.53;;;1.38;;
9854;SDS011;4966;48.112;9.282;2023-02-18T04:30:29;2.47;;;1.33;;
9854;SDS011;4966;48.112;9.282;2023-02-18T04:32:55;1.80;;;0.93;;
9854;SDS011;4966;48.112;9.282;2023-02-18T04:35:21;2.90;;;1.48;;
9854;SDS011;4966;48.112;9.282;2023-02-18T04:37:46;2.17;;;1.10;;
9854;SDS011;4966;48.112;9.282;2023-02-18T04:40:11;2.58;;;1.30;;
9854;SDS011;4966;48.112;9.282;2023-02-18T04:42:37;2.50;;;1.48;;
9854;SDS011;4966;48.112;9.282;2023-02-18T04:45:03;2.47;;;1.23;;
9854;SDS011;4966;48.112;9.282;2023-02-18T04:47:28;2.13;;;1.10;;
9854;SDS011;4966;48.112;9.282;2023-02-18T04:49:54;2.55;;;1.17;;
9854;SDS011;4966;48.112;9.282;2023-02-18T04:52:19;1.85;;;0.90;;
9854;SDS011;4966;48.112;9.282;2023-02-18T04:54:45;2.75;;;1.10;;
9854;SDS011;4966;48.112;9.282;2023-02-18T04:57:11;2.42;;;1.00;;
9854;SDS011;4966;48.112;9.282;2023-02-18T04:59:36;1.65;;;1.00;;
9854;SDS011;4966;48.112;9.282;2023-02-18T05:02:02;1.95;;;1.10;;
9854;SDS011;4966;48.112;9.282;2023-02-18T05:04:27;2.25;;;0.98;;
9854;SDS011;4966;48.112;9.282;2023-02-18T05:06:53;2.35;;;1.10;;
9854;SDS011;4966;48.112;9.282;2023-02-18T05:09:18;1.95;;;0.90;;
9854;SDS011;4966;48.112;9.282;2023-02-18T05:11:44;3.22;;;1.17;;
9854;SDS011;4966;48.112;9.282;2023-02-18T05:14:09;1.60;;;0.90;;
9854;SDS011;4966;48.112;9.282;2023-02-18T05:16:35;1.48;;;0.80;;
9854;SDS011;4966;48.112;9.282;2023-02-18T05:19:00;1.83;;;0.93;;
9854;SDS011;4966;48.112;9.282;2023-02-18T05:21:26;1.63;;;0.80;;
9854;SDS011;4966;48.112;9.282;2023-02-18T05:23:51;2.55;;;0.90;;
9854;SDS011;4966;48.112;9.282;2023-02-18T05:26:16;1.90;;;0.98;;
9854;SDS011;4966;48.112;9.282;2023-02-18T05:28:42;2.10;;;0.93;;
9854;SDS011;4966;48.112;9.282;2023-02-18T05:31:07;1.80;;;0.90;;
9854;SDS011;4966;48.112;9.282;2023-02-18T05:33:33;2.28;;;0.93;;
9854;SDS011;4966;48.112;9.282;2023-02-18T05:35:58;1.75;;;0.90;;
9854;SDS011;4966;48.112;9.282;2023-02-18T05:38:23;2.08;;;0.90;;
9854;SDS011;4966;48.112;9.282;2023-02-18T05:40:49;2.90;;;0.63;;
9854;SDS011;4966;48.112;9.282;2023-02-18T05:43:14;2.28;;;1.00;;
9854;SDS011;4966;48.112;9.282;2023-02-18T05:45:40;2.28;;;0.93;;
9854;SDS011;4966;48.112;9.282;2023-02-18T05:48:05;2.00;;;0.90;;
9854;SDS011;4966;48.112;9.282;2023-02-18T05:50:31;1.92;;;0.95;;
9854;SDS011;4966;48.112;9.282;2023-02-18T05:52:56;1.90;;;1.00;;
9854;SDS011;4966;48.112;9.282;2023-02-18T05:55:22;2.00;;;0.98;;
9854;SDS011;4966;48.112;9.282;2023-02-18T05:57:48;2.28;;;0.80;;
9854;SDS011;4966;48.112;9.282;2023-02-18T06:00:14;1.25;;;0.73;;
9854;SDS011;4966;48.112;9.282;2023-02-18T06:02:39;1.73;;;0.70;;
9854;SDS011;4966;48.112;9.282;2023-02-18T06:05:05;1.83;;;0.90;;
9854;SDS011;4966;48.112;9.282;2023-02-18T06:07:31;1.50;;;0.75;;
9854;SDS011;4966;48.112;9.282;2023-02-18T06:09:56;1.52;;;0.75;;
9854;SDS011;4966;48.112;9.282;2023-02-18T06:12:22;1.52;;;0.70;;
9854;SDS011;4966;48.112;9.282;2023-02-18T06:14:47;2.30;;;0.90;;
9854;SDS011;4966;48.112;9.282;2023-02-18T06:17:13;2.65;;;1.00;;
9854;SDS011;4966;48.112;9.282;2023-02-18T06:19:38;1.83;;;0.88;;
9854;SDS011;4966;48.112;9.282;2023-02-18T06:22:04;3.80;;;0.90;;
9854;SDS011;4966;48.112;9.282;2023-02-18T06:24:30;1.83;;;0.70;;
9854;SDS011;4966;48.112;9.282;2023-02-18T06:26:55;2.38;;;1.08;;
9854;SDS011;4966;48.112;9.282;2023-02-18T06:29:20;1.52;;;0.75;;
9854;SDS011;4966;48.112;9.282;2023-02-18T06:31:46;2.00;;;0.82;;
9854;SDS011;4966;48.112;9.282;2023-02-18T06:34:11;2.50;;;0.73;;
9854;SDS011;4966;48.112;9.282;2023-02-18T06:36:36;1.42;;;0.80;;
9854;SDS011;4966;48.112;9.282;2023-02-18T06:39:03;2.10;;;0.98;;
9854;SDS011;4966;48.112;9.282;2023-02-18T06:41:29;2.35;;;0.93;;
9854;SDS011;4966;48.112;9.282;2023-02-18T06:43:55;1.90;;;0.80;;
9854;SDS011;4966;48.112;9.282;2023-02-18T06:46:20;1.85;;;0.93;;
9854;SDS011;4966;48.112;9.282;2023-02-18T06:48:46;2.88;;;1.10;;
9854;SDS011;4966;48.112;9.282;2023-02-18T06:51:11;1.70;;;0.80;;
9854;SDS011;4966;48.112;9.282;2023-02-18T06:53:37;3.20;;;1.20;;
9854;SDS011;4966;48.112;9.282;2023-02-18T06:56:02;1.80;;;0.82;;
9854;SDS011;4966;48.112;9.282;2023-02-18T06:58:28;1.73;;;0.70;;
9854;SDS011;4966;48.112;9.282;2023-02-18T07:00:53;1.90;;;1.00;;
9854;SDS011;4966;48.112;9.282;2023-02-18T07:03:19;2.60;;;0.80;;
9854;SDS011;4966;48.112;9.282;2023-02-18T07:05:44;2.42;;;0.75;;
9854;SDS011;4966;48.112;9.282;2023-02-18T07:08:10;1.40;;;0.93;;
9854;SDS011;4966;48.112;9.282;2023-02-18T07:10:36;2.72;;;0.98;;
9854;SDS011;4966;48.112;9.282;2023-02-18T07:13:02;1.30;;;0.80;;
9854;SDS011;4966;48.112;9.282;2023-02-18T07:15:28;1.80;;;0.80;;
9854;SDS011;4966;48.112;9.282;2023-02-18T07:17:53;2.05;;;1.20;;
9854;SDS011;4966;48.112;9.282;2023-02-18T07:20:20;2.88;;;1.10;;
9854;SDS011;4966;48.112;9.282;2023-02-18T07:22:46;4.28;;;1.95;;
9854;SDS011;4966;48.112;9.282;2023-02-18T07:25:12;2.95;;;1.60;;
9854;SDS011;4966;48.112;9.282;2023-02-18T07:27:38;2.50;;;1.50;;
9854;SDS011;4966;48.112;9.282;2023-02-18T07:30:03;4.18;;;2.03;;
9854;SDS011;4966;48.112;9.282;2023-02-18T07:32:29;2.05;;;1.20;;
9854;SDS011;4966;48.112;9.282;2023-02-18T07:34:55;2.15;;;1.05;;
9854;SDS011;4966;48.112;9.282;2023-02-18T07:37:22;3.00;;;1.38;;
9854;SDS011;4966;48.112;9.282;2023-02-18T07:39:47;2.92;;;1.70;;
9854;SDS011;4966;48.112;9.282;2023-02-18T07:42:13;3.20;;;1.42;;
9854;SDS011;4966;48.112;9.282;2023-02-18T07:44:38;2.35;;;1.10;;
9854;SDS011;4966;48.112;9.282;2023-02-18T07:47:05;1.95;;;0.82;;
9854;SDS011;4966;48.112;9.282;2023-02-18T07:49:31;4.53;;;1.50;;
9854;SDS011;4966;48.112;9.282;2023-02-18T07:51:58;1.95;;;0.90;;
9854;SDS011;4966;48.112;9.282;2023-02-18T07:54:23;2.85;;;1.40;;
9854;SDS011;4966;48.112;9.282;2023-02-18T07:56:48;2.08;;;1.15;;
9854;SDS011;4966;48.112;9.282;2023-02-18T07:59:14;3.50;;;1.05;;
9854;SDS011;4966;48.112;9.282;2023-02-18T08:01:40;2.08;;;0.90;;
9854;SDS011;4966;48.112;9.282;2023-02-18T08:04:05;3.67;;;1.67;;
9854;SDS011;4966;48.112;9.282;2023-02-18T08:06:39;2.83;;;1.30;;
9854;SDS011;4966;48.112;9.282;2023-02-18T08:09:06;3.95;;;1.10;;
9854;SDS011;4966;48.112;9.282;2023-02-18T08:11:32;2.28;;;1.20;;
9854;SDS011;4966;48.112;9.282;2023-02-18T08:13:58;2.33;;;1.05;;
9854;SDS011;4966;48.112;9.282;2023-02-18T08:16:23;4.35;;;2.03;;
9854;SDS011;4966;48.112;9.282;2023-02-18T08:18:49;10.52;;;3.15;;
9854;SDS011;4966;48.112;9.282;2023-02-18T08:21:16;8.75;;;3.38;;
9854;SDS011;4966;48.112;9.282;2023-02-18T08:23:42;4.60;;;1.45;;
9854;SDS011;4966;48.112;9.282;2023-02-18T08:26:08;3.03;;;1.10;;
9854;SDS011;4966;48.112;9.282;2023-02-18T08:28:34;2.88;;;1.30;;
9854;SDS011;4966;48.112;9.282;2023-02-18T08:30:59;3.05;;;1.00;;
9854;SDS011;4966;48.112;9.282;2023-02-18T08:33:25;3.10;;;1.00;;
9854;SDS011;4966;48.112;9.282;2023-02-18T08:35:51;2.35;;;1.17;;
9854;SDS011;4966;48.112;9.282;2023-02-18T08:38:18;5.22;;;2.10;;
9854;SDS011;4966;48.112;9.282;2023-02-18T08:40:44;2.00;;;0.95;;
9854;SDS011;4966;48.112;9.282;2023-02-18T08:43:10;1.55;;;0.82;;
9854;SDS011;4966;48.112;9.282;2023-02-18T08:45:36;3.10;;;1.75;;
9854;SDS011;4966;48.112;9.282;2023-02-18T08:48:02;3.78;;;1.23;;
9854;SDS011;4966;48.112;9.282;2023-02-18T08:50:28;3.28;;;1.17;;
9854;SDS011;4966;48.112;9.282;2023-02-18T08:52:55;6.60;;;2.45;;
9854;SDS011;4966;48.112;9.282;2023-02-18T08:55:22;5.60;;;1.98;;
9854;SDS011;4966;48.112;9.282;2023-02-18T08:57:48;6.15;;;2.58;;
9854;SDS011;4966;48.112;9.282;2023-02-18T09:00:14;4.07;;;1.70;;
9854;SDS011;4966;48.112;9.282;2023-02-18T09:02:40;6.47;;;2.63;;
9854;SDS011;4966;48.112;9.282;2023-02-18T09:05:06;4.80;;;1.50;;
9854;SDS011;4966;48.112;9.282;2023-02-18T09:07:32;2.90;;;1.00;;
9854;SDS011;4966;48.112;9.282;2023-02-18T09:09:57;2.97;;;1.17;;
9854;SDS011;4966;48.112;9.282;2023-02-18T09:12:22;4.00;;;1.60;;
9854;SDS011;4966;48.112;9.282;2023-02-18T09:14:48;2.78;;;1.27;;
9854;SDS011;4966;48.112;9.282;2023-02-18T09:17:13;2.42;;;1.10;;
9854;SDS011;4966;48.112;9.282;2023-02-18T09:19:39;2.30;;;1.20;;
9854;SDS011;4966;48.112;9.282;2023-02-18T09:22:04;2.30;;;1.17;;
9854;SDS011;4966;48.112;9.282;2023-02-18T09:24:29;8.05;;;3.08;;
9854;SDS011;4966;48.112;9.282;2023-02-18T09:26:55;5.30;;;2.13;;
9854;SDS011;4966;48.112;9.282;2023-02-18T09:29:20;4.15;;;2.03;;
9854;SDS011;4966;48.112;9.282;2023-02-18T09:31:45;2.63;;;1.40;;
9854;SDS011;4966;48.112;9.282;2023-02-18T09:34:11;7.05;;;3.92;;
9854;SDS011;4966;48.112;9.282;2023-02-18T09:36:37;3.15;;;1.65;;
9854;SDS011;4966;48.112;9.282;2023-02-18T09:39:04;3.70;;;1.60;;
9854;SDS011;4966;48.112;9.282;2023-02-18T09:44:05;1.95;;;1.02;;
9854;SDS011;4966;48.112;9.282;2023-02-18T09:49:43;2.70;;;1.45;;
9854;SDS011;4966;48.112;9.282;2023-02-18T09:52:17;2.35;;;1.13;;
9854;SDS011;4966;48.112;9.282;2023-02-18T09:54:48;2.80;;;1.50;;
9854;SDS011;4966;48.112;9.282;2023-02-18T09:57:21;3.15;;;1.60;;
9854;SDS011;4966;48.112;9.282;2023-02-18T09:59:52;2.10;;;1.00;;
9854;SDS011;4966;48.112;9.282;2023-02-18T10:02:24;5.50;;;2.00;;
9854;SDS011;4966;48.112;9.282;2023-02-18T10:04:51;3.60;;;1.80;;
9854;SDS011;4966;48.112;9.282;2023-02-18T10:07:20;2.22;;;1.13;;
9854;SDS011;4966;48.112;9.282;2023-02-18T10:09:51;2.70;;;1.30;;
9854;SDS011;4966;48.112;9.282;2023-02-18T10:12:20;2.67;;;1.35;;
9854;SDS011;4966;48.112;9.282;2023-02-18T10:14:51;1.52;;;0.80;;
9854;SDS011;4966;48.112;9.282;2023-02-18T10:17:25;1.70;;;0.80;;
9854;SDS011;4966;48.112;9.282;2023-02-18T10:19:54;2.10;;;1.00;;
9854;SDS011;4966;48.112;9.282;2023-02-18T10:22:21;2.47;;;1.17;;
9854;SDS011;4966;48.112;9.282;2023-02-18T10:24:50;1.40;;;0.80;;
9854;SDS011;4966;48.112;9.282;2023-02-18T10:27:25;2.55;;;0.93;;
9854;SDS011;4966;48.112;9.282;2023-02-18T10:29:53;1.40;;;0.65;;
9854;SDS011;4966;48.112;9.282;2023-02-18T10:43:12;1.95;;;0.80;;
9854;SDS011;4966;48.112;9.282;2023-02-18T10:46:11;2.08;;;0.88;;
9854;SDS011;4966;48.112;9.282;2023-02-18T10:48:51;1.88;;;1.10;;
9854;SDS011;4966;48.112;9.282;2023-02-18T10:51:23;2.90;;;1.73;;
9854;SDS011;4966;48.112;9.282;2023-02-18T10:53:53;1.60;;;0.80;;
9854;SDS011;4966;48.112;9.282;2023-02-18T10:56:38;0.82;;;0.60;;
9854;SDS011;4966;48.112;9.282;2023-02-18T10:59:12;1.90;;;0.57;;
9854;SDS011;4966;48.112;9.282;2023-02-18T11:01:43;3.28;;;1.67;;
9854;SDS011;4966;48.112;9.282;2023-02-18T11:06:44;2.72;;;0.93;;
9854;SDS011;4966;48.112;9.282;2023-02-18T11:09:28;2.78;;;0.80;;
9854;SDS011;4966;48.112;9.282;2023-02-18T11:12:12;2.92;;;1.27;;
9854;SDS011;4966;48.112;9.282;2023-02-18T11:17:34;3.17;;;0.82;;
9854;SDS011;4966;48.112;9.282;2023-02-18T11:20:21;0.40;;;0.20;;
9854;SDS011;4966;48.112;9.282;2023-02-18T11:22:56;1.38;;;0.60;;
9854;SDS011;4966;48.112;9.282;2023-02-18T11:25:34;0.93;;;0.60;;
9854;SDS011;4966;48.112;9.282;2023-02-18T11:28:04;2.47;;;0.95;;
9854;SDS011;4966;48.112;9.282;2023-02-18T11:30:47;0.43;;;0.32;;
9854;SDS011;4966;48.112;9.282;2023-02-18T11:33:23;2.00;;;0.70;;
9854;SDS011;4966;48.112;9.282;2023-02-18T11:35:51;2.58;;;0.30;;
9854;SDS011;4966;48.112;9.282;2023-02-18T11:41:00;0.75;;;0.25;;
9854;SDS011;4966;48.112;9.282;2023-02-18T11:43:32;0.47;;;0.20;;
9854;SDS011;4966;48.112;9.282;2023-02-18T11:46:08;0.60;;;0.22;;
9854;SDS011;4966;48.112;9.282;2023-02-18T11:48:41;0.60;;;0.30;;
9854;SDS011;4966;48.112;9.282;2023-02-18T11:56:31;3.97;;;0.77;;
9854;SDS011;4966;48.112;9.282;2023-02-18T11:58:59;3.85;;;1.30;;
9854;SDS011;4966;48.112;9.282;2023-02-18T12:01:39;1.27;;;0.52;;
9854;SDS011;4966;48.112;9.282;2023-02-18T12:06:48;1.33;;;0.52;;
9854;SDS011;4966;48.112;9.282;2023-02-18T12:09:39;2.38;;;1.10;;
9854;SDS011;4966;48.112;9.282;2023-02-18T12:12:10;2.65;;;0.77;;
9854;SDS011;4966;48.112;9.282;2023-02-18T12:14:40;0.82;;;0.40;;
9854;SDS011;4966;48.112;9.282;2023-02-18T12:22:45;1.90;;;0.77;;
9854;SDS011;4966;48.112;9.282;2023-02-18T12:28:12;1.20;;;0.50;;
9854;SDS011;4966;48.112;9.282;2023-02-18T12:35:56;2.72;;;1.02;;
9854;SDS011;4966;48.112;9.282;2023-02-18T12:44:12;1.52;;;0.60;;
9854;SDS011;4966;48.112;9.282;2023-02-18T12:52:14;2.05;;;0.63;;
9854;SDS011;4966;48.112;9.282;2023-02-18T12:54:55;2.72;;;0.82;;
9854;SDS011;4966;48.112;9.282;2023-02-18T13:00:20;8.07;;;2.08;;
9854;SDS011;4966;48.112;9.282;2023-02-18T13:03:09;6.65;;;1.60;;
9854;SDS011;4966;48.112;9.282;2023-02-18T13:12:38;3.67;;;0.90;;
9854;SDS011;4966;48.112;9.282;2023-02-18T13:17:45;1.30;;;0.50;;
9854;SDS011;4966;48.112;9.282;2023-02-18T13:22:41;2.88;;;0.90;;
9854;SDS011;4966;48.112;9.282;2023-02-18T13:25:10;1.98;;;0.75;;
9854;SDS011;4966;48.112;9.282;2023-02-18T13:31:21;1.65;;;0.73;;
9854;SDS011;4966;48.112;9.282;2023-02-18T13:33:45;1.60;;;0.60;;
9854;SDS011;4966;48.112;9.282;2023-02-18T13:39:06;1.73;;;0.90;;
9854;SDS011;4966;48.112;9.282;2023-02-18T13:41:36;2.78;;;0.90;;
9854;SDS011;4966;48.112;9.282;2023-02-18T13:44:07;1.75;;;0.80;;
9854;SDS011;4966;48.112;9.282;2023-02-18T13:46:58;2.03;;;0.82;;
9854;SDS011;4966;48.112;9.282;2023-02-18T13:49:24;2.13;;;0.55;;
9854;SDS011;4966;48.112;9.282;2023-02-18T13:51:55;1.73;;;0.90;;
9854;SDS011;4966;48.112;9.282;2023-02-18T13:54:25;1.48;;;0.50;;
9854;SDS011;4966;48.112;9.282;2023-02-18T13:59:40;2.30;;;0.63;;
9854;SDS011;4966;48.112;9.282;2023-02-18T14:07:25;2.08;;;0.65;;
9854;SDS011;4966;48.112;9.282;2023-02-18T14:10:45;1.40;;;0.50;;
9854;SDS011;4966;48.112;9.282;2023-02-18T14:20:28;0.80;;;0.40;;
9854;SDS011;4966;48.112;9.282;2023-02-18T14:22:56;1.17;;;0.40;;
9854;SDS011;4966;48.112;9.282;2023-02-18T14:28:00;1.42;;;0.40;;
9854;SDS011;4966;48.112;9.282;2023-02-18T14:30:29;1.13;;;0.45;;
9854;SDS011;4966;48.112;9.282;2023-02-18T14:33:02;1.13;;;0.52;;
9854;SDS011;4966;48.112;9.282;2023-02-18T14:35:34;1.38;;;0.50;;
9854;SDS011;4966;48.112;9.282;2023-02-18T14:41:16;1.17;;;0.50;;
9854;SDS011;4966;48.112;9.282;2023-02-18T14:46:49;1.67;;;0.65;;
9854;SDS011;4966;48.112;9.282;2023-02-18T14:49:37;2.83;;;1.20;;
9854;SDS011;4966;48.112;9.282;2023-02-18T14:52:11;3.30;;;1.10;;
9854;SDS011;4966;48.112;9.282;2023-02-18T14:54:43;2.72;;;1.42;;
9854;SDS011;4966;48.112;9.282;2023-02-18T14:57:13;1.58;;;0.63;;
9854;SDS011;4966;48.112;9.282;2023-02-18T14:59:45;0.88;;;0.50;;
9854;SDS011;4966;48.112;9.282;2023-02-18T15:02:19;1.50;;;0.80;;
9854;SDS011;4966;48.112;9.282;2023-02-18T15:04:47;1.58;;;0.60;;
9854;SDS011;4966;48.112;9.282;2023-02-18T15:07:16;2.08;;;0.80;;
9854;SDS011;4966;48.112;9.282;2023-02-18T15:12:11;1.40;;;0.70;;
9854;SDS011;4966;48.112;9.282;2023-02-18T15:14:42;2.05;;;0.70;;
9854;SDS011;4966;48.112;9.282;2023-02-18T15:17:13;4.00;;;1.23;;
9854;SDS011;4966;48.112;9.282;2023-02-18T15:19:49;2.63;;;0.98;;
9854;SDS011;4966;48.112;9.282;2023-02-18T15:22:18;2.35;;;0.93;;
9854;SDS011;4966;48.112;9.282;2023-02-18T15:27:15;2.03;;;0.90;;
9854;SDS011;4966;48.112;9.282;2023-02-18T15:29:43;2.13;;;1.05;;
9854;SDS011;4966;48.112;9.282;2023-02-18T15:32:18;4.28;;;1.67;;
9854;SDS011;4966;48.112;9.282;2023-02-18T15:34:49;4.70;;;1.55;;
9854;SDS011;4966;48.112;9.282;2023-02-18T15:37:16;2.22;;;1.00;;
9854;SDS011;4966;48.112;9.282;2023-02-18T15:39:42;5.10;;;1.77;;
9854;SDS011;4966;48.112;9.282;2023-02-18T15:42:16;7.95;;;2.92;;
9854;SDS011;4966;48.112;9.282;2023-02-18T15:44:55;2.67;;;1.35;;
9854;SDS011;4966;48.112;9.282;2023-02-18T15:47:26;2.25;;;0.60;;
9854;SDS011;4966;48.112;9.282;2023-02-18T15:49:53;0.80;;;0.40;;
9854;SDS011;4966;48.112;9.282;2023-02-18T15:52:25;1.88;;;0.80;;
9854;SDS011;4966;48.112;9.282;2023-02-18T15:54:52;2.15;;;0.70;;
9854;SDS011;4966;48.112;9.282;2023-02-18T15:57:18;1.42;;;0.68;;
9854;SDS011;4966;48.112;9.282;2023-02-18T15:59:54;2.03;;;1.10;;
9854;SDS011;4966;48.112;9.282;2023-02-18T16:02:27;1.73;;;0.70;;
9854;SDS011;4966;48.112;9.282;2023-02-18T16:04:57;1.48;;;0.63;;
9854;SDS011;4966;48.112;9.282;2023-02-18T16:07:28;1.60;;;0.90;;
9854;SDS011;4966;48.112;9.282;2023-02-18T16:12:51;2.60;;;0.77;;
9854;SDS011;4966;48.112;9.282;2023-02-18T16:15:25;1.73;;;0.73;;
9854;SDS011;4966;48.112;9.282;2023-02-18T16:17:52;3.15;;;0.93;;
9854;SDS011;4966;48.112;9.282;2023-02-18T16:22:53;1.58;;;0.65;;
9854;SDS011;4966;48.112;9.282;2023-02-18T16:25:23;2.45;;;0.90;;
9854;SDS011;4966;48.112;9.282;2023-02-18T16:27:52;2.35;;;1.05;;
9854;SDS011;4966;48.112;9.282;2023-02-18T16:30:27;4.60;;;1.30;;
9854;SDS011;4966;48.112;9.282;2023-02-18T16:32:55;10.95;;;4.47;;
9854;SDS011;4966;48.112;9.282;2023-02-18T16:35:22;10.48;;;4.25;;
9854;SDS011;4966;48.112;9.282;2023-02-18T16:37:49;4.90;;;1.80;;
9854;SDS011;4966;48.112;9.282;2023-02-18T16:42:48;8.15;;;2.60;;
9854;SDS011;4966;48.112;9.282;2023-02-18T16:45:13;3.97;;;1.42;;
9854;SDS011;4966;48.112;9.282;2023-02-18T16:47:39;11.93;;;3.40;;
9854;SDS011;4966;48.112;9.282;2023-02-18T16:50:05;10.40;;;3.25;;
9854;SDS011;4966;48.112;9.282;2023-02-18T16:52:38;9.00;;;3.35;;
9854;SDS011;4966;48.112;9.282;2023-02-18T16:55:07;7.07;;;2.78;;
9854;SDS011;4966;48.112;9.282;2023-02-18T16:57:45;4.40;;;2.03;;
9854;SDS011;4966;48.112;9.282;2023-02-18T17:00:11;9.27;;;3.70;;
9854;SDS011;4966;48.112;9.282;2023-02-18T17:02:37;7.60;;;3.58;;
9854;SDS011;4966;48.112;9.282;2023-02-18T17:05:02;9.00;;;4.10;;
9854;SDS011;4966;48.112;9.282;2023-02-18T17:07:28;6.25;;;2.78;;
9854;SDS011;4966;48.112;9.282;2023-02-18T17:09:56;5.47;;;2.05;;
9854;SDS011;4966;48.112;9.282;2023-02-18T17:12:25;15.48;;;6.10;;
9854;SDS011;4966;48.112;9.282;2023-02-18T17:14:50;7.15;;;2.53;;
9854;SDS011;4966;48.112;9.282;2023-02-18T17:17:16;4.35;;;1.90;;
9854;SDS011;4966;48.112;9.282;2023-02-18T17:19:46;11.43;;;3.00;;
9854;SDS011;4966;48.112;9.282;2023-02-18T17:22:12;10.52;;;3.15;;
9854;SDS011;4966;48.112;9.282;2023-02-18T17:24:38;4.88;;;1.88;;
9854;SDS011;4966;48.112;9.282;2023-02-18T17:27:04;7.70;;;2.42;;
9854;SDS011;4966;48.112;9.282;2023-02-18T17:29:29;4.22;;;1.70;;
9854;SDS011;4966;48.112;9.282;2023-02-18T17:31:55;6.03;;;2.53;;
9854;SDS011;4966;48.112;9.282;2023-02-18T17:34:25;11.60;;;3.80;;
9854;SDS011;4966;48.112;9.282;2023-02-18T17:36:52;7.10;;;2.08;;
9854;SDS011;4966;48.112;9.282;2023-02-18T17:39:17;3.00;;;1.02;;
9854;SDS011;4966;48.112;9.282;2023-02-18T17:41:44;3.75;;;1.70;;
9854;SDS011;4966;48.112;9.282;2023-02-18T17:44:12;4.32;;;1.55;;
9854;SDS011;4966;48.112;9.282;2023-02-18T17:46:39;5.60;;;2.05;;
9854;SDS011;4966;48.112;9.282;2023-02-18T17:49:05;4.68;;;1.40;;
9854;SDS011;4966;48.112;9.282;2023-02-18T17:51:30;8.90;;;3.00;;
9854;SDS011;4966;48.112;9.282;2023-02-18T17:53:55;7.00;;;2.28;;
9854;SDS011;4966;48.112;9.282;2023-02-18T17:56:21;5.18;;;1.92;;
9854;SDS011;4966;48.112;9.282;2023-02-18T17:58:46;4.00;;;1.70;;
9854;SDS011;4966;48.112;9.282;2023-02-18T18:01:12;8.70;;;2.35;;
9854;SDS011;4966;48.112;9.282;2023-02-18T18:03:38;5.75;;;1.92;;
9854;SDS011;4966;48.112;9.282;2023-02-18T18:06:05;6.50;;;2.35;;
9854;SDS011;4966;48.112;9.282;2023-02-18T18:08:38;5.15;;;2.05;;
9854;SDS011;4966;48.112;9.282;2023-02-18T18:11:04;3.80;;;1.63;;